createdAt,value
2018-06-22T00:00:08.493Z,119.85
2018-06-22T00:02:39.581Z,123.65
2018-06-22T00:05:10.615Z,119.22
2018-06-22T00:07:42.034Z,118.67
2018-06-22T00:10:13.165Z,121.42
2018-06-22T00:12:44.470Z,119.40
2018-06-22T00:15:15.525Z,120.25
2018-06-22T00:17:46.610Z,124.67
2018-06-22T00:20:18.194Z,122.58
2018-06-22T00:22:49.382Z,122.98
2018-06-22T00:25:20.525Z,121.72
2018-06-22T00:27:51.720Z,127.87
2018-06-22T00:30:22.794Z,121.97
2018-06-22T00:32:53.880Z,123.28
2018-06-22T00:35:24.814Z,126.12
2018-06-22T00:37:55.797Z,119.53
2018-06-22T00:40:26.795Z,121.82
2018-06-22T00:42:57.848Z,128.18
2018-06-22T00:45:28.902Z,126.18
2018-06-22T00:48:00.009Z,121.72
2018-06-22T00:50:31.129Z,121.02
2018-06-22T00:53:02.272Z,119.42
2018-06-22T00:55:36.092Z,122.00
2018-06-22T00:58:07.702Z,120.67
2018-06-22T01:00:38.959Z,118.60
2018-06-22T01:03:09.834Z,117.00
2018-06-22T01:05:41.401Z,117.62
2018-06-22T01:08:12.571Z,119.00
2018-06-22T01:10:43.600Z,121.22
2018-06-22T01:13:14.616Z,119.25
2018-06-22T01:15:45.625Z,122.55
2018-06-22T01:18:16.563Z,125.22
2018-06-22T01:20:47.525Z,123.05
2018-06-22T01:23:18.454Z,122.62
2018-06-22T01:25:49.464Z,125.67
2018-06-22T01:28:20.701Z,125.58
2018-06-22T01:30:51.965Z,121.30
2018-06-22T01:33:23.035Z,124.47
2018-06-22T01:35:54.007Z,125.05
2018-06-22T01:38:25.110Z,123.87
2018-06-22T01:40:56.346Z,122.35
2018-06-22T01:43:27.394Z,118.93
2018-06-22T01:45:58.317Z,119.60
2018-06-22T01:48:29.308Z,118.00
2018-06-22T01:51:00.252Z,120.90
2018-06-22T01:53:31.566Z,122.67
2018-06-22T01:56:02.679Z,124.85
2018-06-22T01:58:33.735Z,119.17
2018-06-22T02:01:04.806Z,120.30
2018-06-22T02:03:36.056Z,119.17
2018-06-22T02:06:07.174Z,120.70
2018-06-22T02:08:38.215Z,118.22
2018-06-22T02:11:09.554Z,121.72
2018-06-22T02:13:40.565Z,124.50
2018-06-22T02:16:11.652Z,121.55
2018-06-22T02:18:42.575Z,123.90
2018-06-22T02:21:13.682Z,114.80
2018-06-22T02:23:44.847Z,118.02
2018-06-22T02:26:15.799Z,115.75
2018-06-22T02:28:46.787Z,121.35
2018-06-22T02:31:17.706Z,120.67
2018-06-22T02:33:48.806Z,121.80
2018-06-22T02:36:19.771Z,119.93
2018-06-22T02:38:50.798Z,116.85
2018-06-22T02:41:21.966Z,119.90
2018-06-22T02:43:53.006Z,117.75
2018-06-22T02:46:24.131Z,117.20
2018-06-22T02:48:55.271Z,114.97
2018-06-22T02:51:26.194Z,119.13
2018-06-22T02:53:56.976Z,117.85
2018-06-22T02:56:28.049Z,119.97
2018-06-22T02:58:59.197Z,118.70
2018-06-22T03:01:30.092Z,115.65
2018-06-22T03:04:01.227Z,121.13
2018-06-22T03:06:32.181Z,112.17
2018-06-22T03:09:03.323Z,114.00
2018-06-22T03:11:34.348Z,116.50
2018-06-22T03:14:05.362Z,119.87
2018-06-22T03:16:36.324Z,116.15
2018-06-22T03:19:07.300Z,115.12
2018-06-22T03:21:38.240Z,118.25
2018-06-22T03:24:09.192Z,115.88
2018-06-22T03:26:40.075Z,116.40
2018-06-22T03:29:11.065Z,115.10
2018-06-22T03:31:41.957Z,120.80
2018-06-22T03:34:13.089Z,121.47
2018-06-22T03:36:43.968Z,119.93
2018-06-22T03:39:14.837Z,117.62
2018-06-22T03:41:45.740Z,117.95
2018-06-22T03:44:16.550Z,120.28
2018-06-22T03:46:47.675Z,116.82
2018-06-22T03:49:18.718Z,116.55
2018-06-22T03:51:50.417Z,118.70
2018-06-22T03:54:21.647Z,118.00
2018-06-22T03:56:52.880Z,116.05
2018-06-22T03:59:24.012Z,112.10
2018-06-22T04:01:55.116Z,117.53
2018-06-22T04:04:26.147Z,111.92
2018-06-22T04:06:57.515Z,107.47
2018-06-22T04:09:28.555Z,115.55
2018-06-22T04:12:00.323Z,115.80
2018-06-22T04:14:31.983Z,113.45
2018-06-22T04:17:03.120Z,113.92
2018-06-22T04:19:34.446Z,116.90
2018-06-22T04:22:05.620Z,113.37
2018-06-22T04:24:36.719Z,118.97
2018-06-22T04:27:08.019Z,118.80
2018-06-22T04:29:38.958Z,114.30
2018-06-22T04:32:09.945Z,114.42
2018-06-22T04:34:40.981Z,117.20
2018-06-22T04:37:11.993Z,111.68
2018-06-22T04:39:44.179Z,116.50
2018-06-22T04:42:15.472Z,124.92
2018-06-22T04:44:46.398Z,119.75
2018-06-22T04:47:17.532Z,122.35
2018-06-22T04:49:48.816Z,117.95
2018-06-22T04:52:20.126Z,121.85
2018-06-22T04:54:51.094Z,124.92
2018-06-22T04:57:22.131Z,121.25
2018-06-22T04:59:53.373Z,124.97
2018-06-22T05:02:24.397Z,125.15
2018-06-22T05:04:55.573Z,125.47
2018-06-22T05:07:26.582Z,122.53
2018-06-22T05:09:57.624Z,128.15
2018-06-22T05:12:28.595Z,128.40
2018-06-22T05:15:00.557Z,126.95
2018-06-22T05:17:32.589Z,128.57
2018-06-22T05:20:03.619Z,124.33
2018-06-22T05:22:35.058Z,124.62
2018-06-22T05:25:06.057Z,126.30
2018-06-22T05:27:37.897Z,131.40
2018-06-22T05:30:08.842Z,128.40
2018-06-22T05:32:40.021Z,129.07
2018-06-22T05:35:10.941Z,133.93
2018-06-22T05:37:42.037Z,127.20
2018-06-22T05:40:12.988Z,129.35
2018-06-22T05:42:44.039Z,130.20
2018-06-22T05:45:14.926Z,124.15
2018-06-22T05:47:46.495Z,121.37
2018-06-22T05:50:17.944Z,125.05
2018-06-22T05:52:49.394Z,121.28
2018-06-22T05:55:20.713Z,119.10
2018-06-22T05:57:52.536Z,129.63
2018-06-22T06:00:23.565Z,122.72
2018-06-22T06:02:55.141Z,125.65
2018-06-22T06:05:26.288Z,121.97
2018-06-22T06:07:57.570Z,121.05
2018-06-22T06:10:28.824Z,119.60
2018-06-22T06:13:02.568Z,119.62
2018-06-22T06:15:39.701Z,120.97
2018-06-22T06:18:12.382Z,127.22
2018-06-22T06:20:44.450Z,124.15
2018-06-22T06:23:15.558Z,120.50
2018-06-22T06:25:46.594Z,125.75
2018-06-22T06:28:17.599Z,119.53
2018-06-22T06:30:48.567Z,118.57
2018-06-22T06:33:19.750Z,122.05
2018-06-22T06:35:50.803Z,116.47
2018-06-22T06:38:22.062Z,120.75
2018-06-22T06:40:53.278Z,120.85
2018-06-22T06:43:24.415Z,119.62
2018-06-22T06:45:56.088Z,123.70
2018-06-22T06:48:27.202Z,120.72
2018-06-22T06:50:58.870Z,125.00
2018-06-22T06:53:31.345Z,122.72
2018-06-22T06:56:02.933Z,119.10
2018-06-22T06:58:34.541Z,119.37
2018-06-22T07:01:05.896Z,125.97
2018-06-22T07:03:36.851Z,123.28
2018-06-22T07:06:07.707Z,124.65
2018-06-22T07:08:38.679Z,122.25
2018-06-22T07:11:09.718Z,121.75
2018-06-22T07:13:40.805Z,122.60
2018-06-22T07:16:11.841Z,122.78
2018-06-22T07:18:42.962Z,122.75
2018-06-22T07:21:14.648Z,124.60
2018-06-22T07:23:46.709Z,122.17
2018-06-22T07:26:18.286Z,117.97
2018-06-22T07:28:50.768Z,120.33
2018-06-22T07:31:22.147Z,124.05
2018-06-22T07:33:53.802Z,126.33
2018-06-22T07:36:24.840Z,120.50
2018-06-22T07:38:55.944Z,123.22
2018-06-22T07:41:26.832Z,124.45
2018-06-22T07:43:58.178Z,122.75
2018-06-22T07:46:29.219Z,117.97
2018-06-22T07:49:00.289Z,119.33
2018-06-22T07:51:32.419Z,122.02
2018-06-22T07:54:07.352Z,120.25
2018-06-22T07:56:46.678Z,119.35
2018-06-22T07:59:18.292Z,126.72
2018-06-22T08:01:57.481Z,125.82
2018-06-22T08:04:29.128Z,124.30
2018-06-22T08:07:00.611Z,118.25
2018-06-22T08:09:34.935Z,121.28
2018-06-22T08:12:06.145Z,119.33
2018-06-22T08:14:37.207Z,122.40
2018-06-22T08:17:08.985Z,117.17
2018-06-22T08:19:40.272Z,114.65
2018-06-22T08:22:11.549Z,121.87
2018-06-22T08:24:42.832Z,119.47
2018-06-22T08:27:13.954Z,120.77
2018-06-22T08:29:45.478Z,118.30
2018-06-22T08:32:16.805Z,113.57
2018-06-22T08:34:47.968Z,116.40
2018-06-22T08:37:19.975Z,112.30
2018-06-22T08:39:50.859Z,119.65
2018-06-22T08:42:22.221Z,113.90
2018-06-22T08:44:53.276Z,118.87
2018-06-22T08:47:24.899Z,116.60
2018-06-22T08:49:56.327Z,115.55
2018-06-22T08:52:27.885Z,109.10
2018-06-22T08:54:59.203Z,109.97
2018-06-22T08:57:30.343Z,113.20
2018-06-22T09:00:01.624Z,116.45
2018-06-22T09:02:33.253Z,116.15
2018-06-22T09:05:05.075Z,120.22
2018-06-22T09:07:36.697Z,110.52
2018-06-22T09:10:07.980Z,109.78
2018-06-22T09:12:38.971Z,112.40
2018-06-22T09:15:10.164Z,111.55
2018-06-22T09:17:42.655Z,112.20
2018-06-22T09:20:15.499Z,112.77
2018-06-22T09:22:46.737Z,118.47
2018-06-22T09:25:17.754Z,114.05
2018-06-22T09:27:48.834Z,116.88
2018-06-22T09:30:19.894Z,118.97
2018-06-22T09:32:50.978Z,112.32
2018-06-22T09:35:22.466Z,110.70
2018-06-22T09:37:53.527Z,112.50
2018-06-22T09:40:24.716Z,111.22
2018-06-22T09:42:55.907Z,111.68
2018-06-22T09:45:26.925Z,106.67
2018-06-22T09:47:58.115Z,108.20
2018-06-22T09:50:29.207Z,118.37
2018-06-22T09:53:00.464Z,112.97
2018-06-22T09:55:31.747Z,113.30
2018-06-22T09:58:03.013Z,113.30
2018-06-22T10:00:34.050Z,108.27
2018-06-22T10:03:05.599Z,110.95
2018-06-22T10:05:36.441Z,115.10
2018-06-22T10:08:07.596Z,115.42
2018-06-22T10:10:38.489Z,110.90
2018-06-22T10:13:10.963Z,115.75
2018-06-22T10:15:47.007Z,109.65
2018-06-22T10:18:18.436Z,114.70
2018-06-22T10:20:51.190Z,113.85
2018-06-22T10:23:23.013Z,113.37
2018-06-22T10:25:54.656Z,109.95
2018-06-22T10:28:25.727Z,120.53
2018-06-22T10:30:57.487Z,116.35
2018-06-22T10:33:28.813Z,115.95
2018-06-22T10:35:59.822Z,116.93
2018-06-22T10:38:30.974Z,115.15
2018-06-22T10:41:02.199Z,121.10
2018-06-22T10:43:33.742Z,118.72
2018-06-22T10:46:04.845Z,120.95
2018-06-22T10:48:36.119Z,117.72
2018-06-22T10:51:07.620Z,117.85
2018-06-22T10:53:39.113Z,119.15
2018-06-22T10:56:13.155Z,117.87
2018-06-22T10:58:47.535Z,117.28
2018-06-22T11:05:25.124Z,118.72
2018-06-22T11:07:57.397Z,118.05
2018-06-22T11:10:28.933Z,115.90
2018-06-22T11:13:00.039Z,113.05
2018-06-22T11:15:32.851Z,117.00
2018-06-22T11:18:04.090Z,114.88
2018-06-22T11:20:35.412Z,113.57
2018-06-22T11:23:06.517Z,113.50
2018-06-22T11:25:37.708Z,116.28
2018-06-22T11:28:08.713Z,111.57
2018-06-22T11:30:39.718Z,117.77
2018-06-22T11:33:11.101Z,114.45
2018-06-22T11:35:42.270Z,116.95
2018-06-22T11:38:13.462Z,115.28
2018-06-22T11:40:44.979Z,116.35
2018-06-22T11:43:16.249Z,116.85
2018-06-22T11:45:48.182Z,118.80
2018-06-22T11:48:19.322Z,112.35
2018-06-22T11:50:51.026Z,118.87
2018-06-22T11:53:22.315Z,120.53
2018-06-22T11:55:53.482Z,118.22
2018-06-22T11:58:25.023Z,122.50
2018-06-22T12:00:57.714Z,115.92
2018-06-22T12:03:29.647Z,119.13
2018-06-22T12:06:00.927Z,117.47
2018-06-22T12:08:33.090Z,117.40
2018-06-22T12:11:04.069Z,115.62
2018-06-22T12:13:35.260Z,114.52
2018-06-22T12:16:06.894Z,118.25
2018-06-22T12:18:37.953Z,113.10
2018-06-22T12:21:11.129Z,116.08
2018-06-22T12:23:43.685Z,114.10
2018-06-22T12:26:14.796Z,118.08
2018-06-22T12:28:45.946Z,122.07
2018-06-22T12:31:16.936Z,119.90
2018-06-22T12:33:48.061Z,120.92
2018-06-22T12:36:19.534Z,131.35
2018-06-22T12:38:51.467Z,128.00
2018-06-22T12:41:22.494Z,124.92
2018-06-22T12:43:53.594Z,121.00
2018-06-22T12:46:24.813Z,126.50
2018-06-22T12:48:56.778Z,118.53
2018-06-22T12:51:27.933Z,113.03
2018-06-22T12:54:06.501Z,120.45
2018-06-22T12:56:39.162Z,119.87
2018-06-22T12:59:10.600Z,126.22
2018-06-22T13:01:41.775Z,126.02
2018-06-22T13:04:13.264Z,121.82
2018-06-22T13:06:44.734Z,119.50
2018-06-22T13:09:16.485Z,111.57
2018-06-22T13:11:47.517Z,116.73
2018-06-22T13:14:19.585Z,112.35
2018-06-22T13:16:51.446Z,116.08
2018-06-22T13:19:22.832Z,119.45
2018-06-22T13:21:56.314Z,118.77
2018-06-22T13:24:30.140Z,117.17
2018-06-22T13:27:01.868Z,117.50
2018-06-22T13:29:33.298Z,110.90
2018-06-22T13:32:05.350Z,118.30
2018-06-22T13:34:38.545Z,119.55
2018-06-22T13:37:09.851Z,119.77
2018-06-22T13:39:40.891Z,119.08
2018-06-22T13:42:12.222Z,117.33
2018-06-22T13:44:43.231Z,121.70
2018-06-22T13:47:15.958Z,123.85
2018-06-22T13:49:47.590Z,122.90
2018-06-22T13:52:18.958Z,125.65
2018-06-22T13:54:51.145Z,124.27
2018-06-22T13:57:22.985Z,121.87
2018-06-22T13:59:54.092Z,124.85
2018-06-22T14:02:25.689Z,124.25
2018-06-22T14:05:01.921Z,121.42
2018-06-22T14:07:33.495Z,119.30
2018-06-22T14:10:05.547Z,124.18
2018-06-22T14:12:37.961Z,121.95
2018-06-22T14:15:09.725Z,123.00
2018-06-22T14:17:40.838Z,122.50
2018-06-22T14:20:12.135Z,122.07
2018-06-22T14:22:43.398Z,126.40
2018-06-22T14:25:16.317Z,122.70
2018-06-22T14:27:48.350Z,127.02
2018-06-22T14:30:19.426Z,122.17
2018-06-22T14:32:50.507Z,120.30
2018-06-22T14:35:21.768Z,121.82
2018-06-22T14:37:52.874Z,122.67
2018-06-22T14:40:23.892Z,119.97
2018-06-22T14:42:55.058Z,120.53
2018-06-22T14:45:26.555Z,118.53
2018-06-22T14:47:58.221Z,120.90
2018-06-22T14:50:29.230Z,121.57
2018-06-22T14:53:00.845Z,125.97
2018-06-22T14:55:36.914Z,124.15
2018-06-22T14:58:13.193Z,124.15
2018-06-22T15:00:49.149Z,122.85
2018-06-22T15:03:25.339Z,128.45
2018-06-22T15:06:01.335Z,125.35
2018-06-22T15:08:32.395Z,123.18
2018-06-22T15:11:03.647Z,120.20
2018-06-22T15:13:34.926Z,120.22
2018-06-22T15:16:05.868Z,122.02
2018-06-22T15:18:36.873Z,128.68
2018-06-22T15:21:08.108Z,123.95
2018-06-22T15:23:39.321Z,123.62
2018-06-22T15:26:12.307Z,121.92
2018-06-22T15:28:43.978Z,124.53
2018-06-22T15:31:15.251Z,124.00
2018-06-22T15:33:51.625Z,125.07
2018-06-22T15:36:27.808Z,125.27
2018-06-22T15:39:04.067Z,125.80
2018-06-22T15:41:40.428Z,124.72
2018-06-22T15:44:16.586Z,126.55
2018-06-22T15:46:52.627Z,128.97
2018-06-22T15:49:28.544Z,125.47
2018-06-22T15:52:05.578Z,124.95
2018-06-22T15:54:42.086Z,131.20
2018-06-22T15:57:16.875Z,125.00
2018-06-22T15:59:49.828Z,123.40
2018-06-22T16:02:25.906Z,127.80
2018-06-22T16:04:57.317Z,128.27
2018-06-22T16:07:30.404Z,126.62
2018-06-22T16:10:03.482Z,128.45
2018-06-22T16:12:40.399Z,129.12
2018-06-22T16:15:18.082Z,120.15
2018-06-22T16:17:54.831Z,120.17
2018-06-22T16:20:31.122Z,123.10
2018-06-22T16:23:08.057Z,121.13
2018-06-22T16:25:44.990Z,122.98
2018-06-22T16:28:18.000Z,128.42
2018-06-22T16:30:50.248Z,117.50
2018-06-22T16:33:23.084Z,115.15
2018-06-22T16:35:54.347Z,115.15
2018-06-22T16:38:26.308Z,121.60
2018-06-22T16:40:57.640Z,118.60
2018-06-22T16:43:28.607Z,112.30
2018-06-22T16:46:00.801Z,115.77
2018-06-22T16:48:31.974Z,111.92
2018-06-22T16:51:03.896Z,113.68
2018-06-22T16:53:35.313Z,110.15
2018-06-22T16:56:07.344Z,114.17
2018-06-22T16:58:39.735Z,114.85
2018-06-22T17:01:12.529Z,113.35
2018-06-22T17:03:44.297Z,114.25
2018-06-22T17:06:16.250Z,109.75
2018-06-22T17:08:53.008Z,110.40
2018-06-22T17:11:30.142Z,113.77
2018-06-22T17:14:06.431Z,109.55
2018-06-22T17:16:43.487Z,114.97
2018-06-22T17:19:20.578Z,118.97
2018-06-22T17:21:52.645Z,118.42
2018-06-22T17:24:27.426Z,118.13
2018-06-22T17:26:59.330Z,118.05
2018-06-22T17:29:31.497Z,117.42
2018-06-22T17:32:03.044Z,110.68
2018-06-22T17:34:34.266Z,120.45
2018-06-22T17:37:05.396Z,120.02
2018-06-22T17:39:37.052Z,121.95
2018-06-22T17:42:09.751Z,115.75
2018-06-22T17:44:41.189Z,112.92
2018-06-22T17:47:13.559Z,114.45
2018-06-22T17:49:45.333Z,116.75
2018-06-22T17:52:16.977Z,114.80
2018-06-22T17:54:49.275Z,111.37
2018-06-22T17:57:21.229Z,113.20
2018-06-22T17:59:57.828Z,119.72
2018-06-22T18:02:34.499Z,113.83
2018-06-22T18:05:10.597Z,112.15
2018-06-22T18:07:45.110Z,114.88
2018-06-22T18:10:21.329Z,119.20
2018-06-22T18:13:00.054Z,113.77
2018-06-22T18:15:31.636Z,113.75
2018-06-22T18:18:03.945Z,112.47
2018-06-22T18:20:35.784Z,110.08
2018-06-22T18:23:06.962Z,112.72
2018-06-22T18:25:38.103Z,114.42
2018-06-22T18:28:09.389Z,111.75
2018-06-22T18:30:43.547Z,115.60
2018-06-22T18:33:15.833Z,114.30
2018-06-22T18:35:47.213Z,114.00
2018-06-22T18:38:19.683Z,111.00
2018-06-22T18:40:51.713Z,109.03
2018-06-22T18:43:29.409Z,109.92
2018-06-22T18:46:01.299Z,115.35
2018-06-22T18:48:34.437Z,111.12
2018-06-22T18:51:07.085Z,111.72
2018-06-22T18:53:44.214Z,115.08
2018-06-22T18:56:21.461Z,113.75
2018-06-22T18:58:58.172Z,116.15
2018-06-22T19:01:34.323Z,113.20
2018-06-22T19:04:05.851Z,114.20
2018-06-22T19:06:39.096Z,110.17
2018-06-22T19:09:10.693Z,115.03
2018-06-22T19:11:41.995Z,119.50
2018-06-22T19:14:13.689Z,116.53
2018-06-22T19:16:47.370Z,119.35
2018-06-22T19:19:19.568Z,113.57
2018-06-22T19:21:52.059Z,111.15
2018-06-22T19:24:23.544Z,112.85
2018-06-22T19:26:54.537Z,112.35
2018-06-22T19:29:25.729Z,112.32
2018-06-22T19:31:57.225Z,111.70
2018-06-22T19:34:33.651Z,102.95
2018-06-22T19:37:05.062Z,112.20
2018-06-22T19:39:36.224Z,113.40
2018-06-22T19:42:07.628Z,111.72
2018-06-22T19:44:44.700Z,113.32
2018-06-22T19:47:22.261Z,111.65
2018-06-22T19:49:59.202Z,109.95
2018-06-22T19:52:35.843Z,113.47
2018-06-22T19:55:09.093Z,113.32
2018-06-22T19:57:41.998Z,118.40
2018-06-22T20:00:13.882Z,110.60
2018-06-22T20:02:46.698Z,110.42
2018-06-22T20:05:19.640Z,120.05
2018-06-22T20:07:51.540Z,117.67
2018-06-22T20:10:22.938Z,114.45
2018-06-22T20:12:56.111Z,115.30
2018-06-22T20:15:28.185Z,115.25
2018-06-22T20:18:00.383Z,117.85
2018-06-22T20:20:32.961Z,111.80
2018-06-22T20:23:04.645Z,110.50
2018-06-22T20:25:41.368Z,107.32
2018-06-22T20:28:13.315Z,110.65
2018-06-22T20:30:49.327Z,112.97
2018-06-22T20:33:22.662Z,114.32
2018-06-22T20:35:59.181Z,115.05
2018-06-22T20:38:35.470Z,107.78
2018-06-22T20:41:12.015Z,117.93
2018-06-22T20:43:48.179Z,111.55
2018-06-22T20:46:24.425Z,111.10
2018-06-22T20:49:01.000Z,110.30
2018-06-22T20:51:40.467Z,109.00
2018-06-22T20:54:11.778Z,109.03
2018-06-22T20:56:43.972Z,113.97
2018-06-22T20:59:15.204Z,106.50
2018-06-22T21:01:46.850Z,106.37
2018-06-22T21:04:18.044Z,106.97
2018-06-22T21:06:49.850Z,114.52
2018-06-22T21:09:21.121Z,109.72
2018-06-22T21:11:52.651Z,103.75
2018-06-22T21:14:23.722Z,101.45
2018-06-22T21:16:54.958Z,103.92
2018-06-22T21:19:26.068Z,106.55
2018-06-22T21:22:04.012Z,111.20
2018-06-22T21:24:37.470Z,108.70
2018-06-22T21:27:14.176Z,115.92
2018-06-22T21:29:50.510Z,110.90
2018-06-22T21:34:28.957Z,110.60
2018-06-22T21:37:04.927Z,111.97
2018-06-22T21:39:36.131Z,115.85
2018-06-22T21:42:07.167Z,108.12
2018-06-22T21:44:38.385Z,114.05
2018-06-22T21:47:10.910Z,114.75
2018-06-22T21:49:42.357Z,113.17
2018-06-22T21:52:13.590Z,115.32
2018-06-22T21:54:44.976Z,112.60
2018-06-22T21:57:16.098Z,116.10
2018-06-22T21:59:47.171Z,113.37
2018-06-22T22:02:18.466Z,114.70
2018-06-22T22:04:50.014Z,112.50
2018-06-22T22:07:21.142Z,111.60
2018-06-22T22:09:52.367Z,112.10
2018-06-22T22:12:23.514Z,116.77
2018-06-22T22:14:54.894Z,112.37
2018-06-22T22:17:25.967Z,106.95
2018-06-22T22:19:57.096Z,111.77
2018-06-22T22:22:28.231Z,109.20
2018-06-22T22:24:59.380Z,112.97
2018-06-22T22:27:30.793Z,109.60
2018-06-22T22:30:02.251Z,110.28
2018-06-22T22:32:33.282Z,109.42
2018-06-22T22:35:04.839Z,110.48
2018-06-22T22:37:35.971Z,106.97
2018-06-22T22:40:07.709Z,115.30
2018-06-22T22:42:38.717Z,113.60
2018-06-22T22:45:09.828Z,111.92
2018-06-22T22:47:41.000Z,108.22
2018-06-22T22:50:12.171Z,113.62
2018-06-22T22:52:43.207Z,108.25
2018-06-22T22:55:14.234Z,110.42
2018-06-22T22:57:45.324Z,110.08
2018-06-22T23:00:17.604Z,111.90
2018-06-22T23:02:48.766Z,110.88
2018-06-22T23:05:20.356Z,115.35
2018-06-22T23:07:51.464Z,116.60
2018-06-22T23:10:22.734Z,110.40
2018-06-22T23:12:54.245Z,114.95
2018-06-22T23:15:25.627Z,119.53
2018-06-22T23:17:56.687Z,113.77
2018-06-22T23:20:27.997Z,115.90
2018-06-22T23:23:09.779Z,120.15
2018-06-22T23:25:41.245Z,110.32
2018-06-22T23:28:12.287Z,107.97
2018-06-22T23:30:43.685Z,113.10
2018-06-22T23:33:14.758Z,115.35
2018-06-22T23:35:45.761Z,114.95
2018-06-22T23:38:16.850Z,113.30
2018-06-22T23:40:48.157Z,108.80
2018-06-22T23:43:19.456Z,110.95
2018-06-22T23:45:50.748Z,117.10
2018-06-22T23:48:21.992Z,106.07
2018-06-22T23:50:53.200Z,112.17
2018-06-22T23:53:24.354Z,111.77
2018-06-22T23:55:55.460Z,114.10
2018-06-22T23:58:26.426Z,115.22
